Time;durP1;ratioP1;P1;durP2;ratioP2;P2;SDS_P1;SDS_P2;PMS_P1;PMS_P2;Temp;Humidity;BMP_temperature;BMP_pressure;BME280_temperature;BME280_humidity;BME280_pressure;Samples;Min_cycle;Max_cycle;Signal;HPM_P1;HPM_P2
2022/05/09 00:01:35;;;;;;;0.40;0.40;;;10.40;99.90;;;;;;5038374;28;20429;-64
2022/05/09 00:04:23;;;;;;;0.40;0.40;;;10.50;99.90;;;;;;5037348;28;20485;-64
2022/05/09 00:07:13;;;;;;;0.40;0.40;;;10.30;99.90;;;;;;5035827;28;20520;-66
2022/05/09 00:10:01;;;;;;;0.40;0.40;;;10.30;99.90;;;;;;5036875;28;20432;-66
2022/05/09 00:12:50;;;;;;;0.40;0.40;;;10.20;99.90;;;;;;5035935;28;21044;-65
2022/05/09 00:15:38;;;;;;;0.40;0.40;;;10.20;99.90;;;;;;5035619;28;20488;-65
2022/05/09 00:18:26;;;;;;;0.40;0.40;;;10.10;99.90;;;;;;5035866;28;20519;-65
2022/05/09 00:21:15;;;;;;;0.40;0.40;;;10.00;99.90;;;;;;5035882;28;20452;-65
2022/05/09 00:24:05;;;;;;;0.50;0.50;;;10.10;99.90;;;;;;5035509;28;20473;-65
2022/05/09 00:26:55;;;;;;;0.40;0.40;;;9.90;99.90;;;;;;5037246;28;20429;-65
2022/05/09 00:29:43;;;;;;;0.40;0.40;;;9.90;99.90;;;;;;5036042;28;20493;-67
2022/05/09 00:32:31;;;;;;;0.40;0.40;;;9.80;99.90;;;;;;5035889;28;20835;-65
2022/05/09 00:35:24;;;;;;;0.40;0.40;;;9.80;99.90;;;;;;5034763;28;20516;-65
2022/05/09 00:38:12;;;;;;;0.40;0.40;;;9.70;99.90;;;;;;5035579;28;20472;-65
2022/05/09 00:44:10;;;;;;;0.40;0.40;;;9.60;99.90;;;;;;5038919;28;20492;-70
2022/05/09 00:46:58;;;;;;;0.40;0.40;;;9.50;99.90;;;;;;5056554;28;20429;-65
2022/05/09 00:49:50;;;;;;;0.40;0.40;;;9.50;99.90;;;;;;5054168;28;20453;-65
2022/05/09 00:52:44;;;;;;;0.40;0.40;;;9.40;99.90;;;;;;5054193;28;20464;-65
2022/05/09 00:55:40;;;;;;;0.40;0.40;;;9.40;99.90;;;;;;5054767;28;20436;-65
2022/05/09 00:58:36;;;;;;;0.40;0.40;;;9.40;99.90;;;;;;5073157;28;20456;-65
2022/05/09 01:01:25;;;;;;;0.50;0.50;;;9.40;99.90;;;;;;5064685;28;20498;-67
2022/05/09 01:04:16;;;;;;;0.40;0.40;;;9.40;99.90;;;;;;5059002;28;20964;-65
2022/05/09 01:07:04;;;;;;;0.50;0.50;;;9.10;99.90;;;;;;5058492;28;20424;-65
2022/05/09 01:09:52;;;;;;;0.40;0.40;;;9.30;99.90;;;;;;5059871;28;20455;-66
2022/05/09 01:12:42;;;;;;;0.40;0.40;;;9.20;99.90;;;;;;5085671;28;20824;-65
2022/05/09 01:15:32;;;;;;;0.40;0.40;;;9.20;99.90;;;;;;5089460;28;20489;-65
2022/05/09 01:18:21;;;;;;;0.40;0.40;;;9.10;99.90;;;;;;5090208;28;20447;-65
2022/05/09 01:21:29;;;;;;;0.40;0.40;;;9.20;99.90;;;;;;5089016;28;20461;-65
2022/05/09 01:24:20;;;;;;;0.40;0.40;;;9.10;99.90;;;;;;5088342;28;20423;-66
2022/05/09 01:27:08;;;;;;;0.40;0.40;;;9.00;99.90;;;;;;5086314;28;20473;-65
2022/05/09 01:30:02;;;;;;;0.40;0.40;;;8.90;99.90;;;;;;5086805;28;20465;-65
2022/05/09 01:32:56;;;;;;;0.40;0.40;;;8.90;99.90;;;;;;5075900;28;20428;-65
2022/05/09 01:35:50;;;;;;;0.40;0.40;;;8.90;99.90;;;;;;5074322;28;20504;-66
2022/05/09 01:38:46;;;;;;;0.40;0.40;;;8.80;99.90;;;;;;5075753;28;20463;-65
2022/05/09 01:41:38;;;;;;;0.40;0.40;;;8.80;99.90;;;;;;5075779;28;20435;-65
2022/05/09 01:44:27;;;;;;;0.40;0.40;;;8.70;99.90;;;;;;5077107;28;20439;-65
2022/05/09 01:50:23;;;;;;;0.40;0.40;;;8.60;99.90;;;;;;5076557;28;21005;-65
2022/05/09 01:53:11;;;;;;;0.40;0.40;;;8.60;99.90;;;;;;5076123;28;20423;-65
2022/05/09 01:56:00;;;;;;;0.40;0.40;;;8.60;99.90;;;;;;5075573;28;20799;-67
2022/05/09 01:58:49;;;;;;;0.40;0.40;;;8.70;99.90;;;;;;5054224;28;20844;-66
2022/05/09 02:01:39;;;;;;;0.40;0.40;;;8.60;99.90;;;;;;5055448;28;20420;-65
2022/05/09 02:04:28;;;;;;;0.40;0.40;;;8.60;99.90;;;;;;5055020;28;20428;-65
2022/05/09 02:07:19;;;;;;;0.40;0.40;;;8.50;99.90;;;;;;5054561;28;20431;-66
2022/05/09 02:10:08;;;;;;;0.40;0.40;;;8.60;99.90;;;;;;5058928;28;20802;-65
2022/05/09 02:12:57;;;;;;;0.40;0.40;;;8.50;99.90;;;;;;5058889;28;21026;-64
2022/05/09 02:15:45;;;;;;;0.40;0.40;;;8.50;99.90;;;;;;5058778;28;20428;-64
2022/05/09 02:18:35;;;;;;;0.40;0.40;;;8.50;99.90;;;;;;5057894;28;20444;-64
2022/05/09 02:21:23;;;;;;;0.40;0.40;;;8.30;99.90;;;;;;5060130;28;21000;-64
2022/05/09 02:24:11;;;;;;;0.40;0.40;;;8.20;99.90;;;;;;5060259;28;20432;-64
2022/05/09 02:27:00;;;;;;;0.40;0.40;;;8.20;99.90;;;;;;5053981;28;20478;-64
2022/05/09 02:29:49;;;;;;;0.40;0.40;;;8.10;99.90;;;;;;5053435;28;20980;-64
2022/05/09 02:32:38;;;;;;;0.40;0.40;;;8.20;99.90;;;;;;5054503;28;20483;-64
2022/05/09 02:35:26;;;;;;;0.40;0.40;;;7.90;99.90;;;;;;5054712;28;20413;-63
2022/05/09 02:38:15;;;;;;;0.40;0.40;;;7.90;99.90;;;;;;5054285;28;20460;-64
2022/05/09 02:41:03;;;;;;;0.40;0.40;;;7.80;99.90;;;;;;5055102;28;20424;-64
2022/05/09 02:43:51;;;;;;;0.40;0.40;;;7.80;99.90;;;;;;5054137;28;20504;-64
2022/05/09 02:46:42;;;;;;;0.40;0.40;;;7.70;99.90;;;;;;5052805;28;20486;-63
2022/05/09 02:49:30;;;;;;;0.40;0.40;;;7.60;99.90;;;;;;5054203;28;20448;-64
2022/05/09 02:52:18;;;;;;;0.40;0.40;;;7.60;99.90;;;;;;5053413;28;21018;-64
2022/05/09 02:55:07;;;;;;;0.50;0.50;;;7.50;99.90;;;;;;5053631;28;20417;-64
2022/05/09 02:57:56;;;;;;;0.40;0.40;;;7.50;99.90;;;;;;5053451;28;20444;-64
2022/05/09 03:00:44;;;;;;;0.40;0.40;;;7.50;99.90;;;;;;5054527;28;20424;-64
2022/05/09 03:06:39;;;;;;;0.40;0.40;;;7.30;99.90;;;;;;5054273;28;20460;-64
2022/05/09 03:09:27;;;;;;;0.40;0.40;;;7.30;99.90;;;;;;5054059;28;20444;-64
2022/05/09 03:12:18;;;;;;;0.40;0.40;;;7.30;99.90;;;;;;5053725;28;20889;-64
2022/05/09 03:15:06;;;;;;;0.40;0.40;;;7.20;99.90;;;;;;5054500;28;21011;-64
2022/05/09 03:17:55;;;;;;;0.40;0.40;;;7.20;99.90;;;;;;5053880;28;20459;-64
2022/05/09 03:20:45;;;;;;;0.40;0.40;;;7.20;99.90;;;;;;5053414;28;20809;-64
2022/05/09 03:23:33;;;;;;;0.40;0.40;;;7.20;99.90;;;;;;5053957;28;20842;-64
2022/05/09 03:26:22;;;;;;;0.40;0.40;;;7.20;99.90;;;;;;5053973;28;20499;-64
2022/05/09 03:29:10;;;;;;;0.40;0.40;;;7.20;99.90;;;;;;5055511;28;20451;-64
2022/05/09 03:32:01;;;;;;;0.40;0.40;;;7.20;99.90;;;;;;5057164;28;20482;-64
2022/05/09 03:34:49;;;;;;;0.40;0.40;;;7.20;99.90;;;;;;5057839;28;20482;-64
2022/05/09 03:37:39;;;;;;;0.40;0.40;;;7.20;99.90;;;;;;5057063;28;20485;-64
2022/05/09 03:40:28;;;;;;;0.40;0.40;;;7.20;99.90;;;;;;5056858;28;20420;-64
2022/05/09 03:43:16;;;;;;;0.40;0.40;;;7.10;99.90;;;;;;5056662;28;20471;-64
2022/05/09 03:46:05;;;;;;;0.40;0.40;;;7.20;99.90;;;;;;5056837;28;20478;-64
2022/05/09 03:48:53;;;;;;;0.40;0.40;;;7.10;99.90;;;;;;5056197;28;20929;-63
2022/05/09 03:51:41;;;;;;;0.40;0.40;;;7.20;99.90;;;;;;5056412;28;20428;-66
2022/05/09 03:54:30;;;;;;;0.40;0.40;;;7.20;99.90;;;;;;5056823;28;20431;-64
2022/05/09 03:57:19;;;;;;;0.40;0.40;;;7.20;99.90;;;;;;5056464;28;20424;-64
2022/05/09 04:00:09;;;;;;;0.40;0.40;;;7.20;99.90;;;;;;5057918;28;20435;-65
2022/05/09 04:02:57;;;;;;;0.40;0.40;;;7.20;99.90;;;;;;5056112;28;20912;-65
2022/05/09 04:05:46;;;;;;;0.40;0.40;;;7.30;99.90;;;;;;5057805;28;20478;-65
2022/05/09 04:08:34;;;;;;;0.40;0.40;;;7.30;99.90;;;;;;5058479;28;20452;-65
2022/05/09 04:11:23;;;;;;;0.40;0.40;;;7.40;99.90;;;;;;5059314;28;20851;-65
2022/05/09 04:14:11;;;;;;;0.40;0.40;;;7.40;99.90;;;;;;5056903;28;20428;-65
2022/05/09 04:16:59;;;;;;;0.40;0.40;;;7.40;99.90;;;;;;5056513;28;21026;-65
2022/05/09 04:19:47;;;;;;;0.40;0.40;;;7.50;99.90;;;;;;5057989;28;21026;-65
2022/05/09 04:22:35;;;;;;;0.40;0.40;;;7.50;99.90;;;;;;5057173;28;20432;-65
2022/05/09 04:25:24;;;;;;;0.40;0.40;;;7.60;99.90;;;;;;5056715;28;20960;-65
2022/05/09 04:28:17;;;;;;;0.40;0.40;;;7.70;99.90;;;;;;5057319;28;20589;-66
2022/05/09 04:31:05;;;;;;;0.40;0.40;;;7.80;99.90;;;;;;5059025;28;20430;-65
2022/05/09 04:33:54;;;;;;;0.40;0.40;;;7.80;99.90;;;;;;5056132;28;20903;-66
2022/05/09 04:36:43;;;;;;;0.40;0.40;;;7.90;99.90;;;;;;5057877;28;20435;-64
2022/05/09 04:39:31;;;;;;;0.50;0.50;;;8.00;99.90;;;;;;5066435;23;20980;-68
2022/05/09 04:42:19;;;;;;;0.40;0.40;;;8.10;99.90;;;;;;5033307;28;20420;-69
2022/05/09 04:45:10;;;;;;;0.50;0.50;;;8.20;99.90;;;;;;5034248;28;20483;-67
2022/05/09 04:47:58;;;;;;;0.50;0.50;;;8.30;99.90;;;;;;5034525;28;20461;-68
2022/05/09 04:50:47;;;;;;;0.50;0.50;;;8.40;99.90;;;;;;5033947;28;20875;-68
2022/05/09 04:53:35;;;;;;;0.50;0.50;;;8.50;99.90;;;;;;5053897;28;20428;-70
2022/05/09 04:56:23;;;;;;;0.50;0.50;;;8.50;99.90;;;;;;5055048;28;20431;-69
2022/05/09 04:59:11;;;;;;;0.40;0.40;;;8.70;99.90;;;;;;5054243;28;20444;-69
2022/05/09 05:02:01;;;;;;;0.50;0.50;;;8.70;99.90;;;;;;5053206;28;20435;-68
2022/05/09 05:04:49;;;;;;;0.50;0.50;;;8.70;99.90;;;;;;5053503;28;20428;-69
2022/05/09 05:07:37;;;;;;;0.50;0.50;;;8.90;99.90;;;;;;5053198;28;20547;-69
2022/05/09 05:10:26;;;;;;;0.47;0.47;;;9.00;99.90;;;;;;5052897;28;20529;-68
2022/05/09 05:13:14;;;;;;;0.50;0.50;;;9.20;99.90;;;;;;5053033;28;20421;-68
2022/05/09 05:16:02;;;;;;;0.50;0.50;;;9.30;99.90;;;;;;5052715;28;20847;-68
2022/05/09 05:18:52;;;;;;;0.50;0.50;;;9.40;99.90;;;;;;5053059;28;20901;-68
2022/05/09 05:21:42;;;;;;;0.50;0.50;;;9.50;99.90;;;;;;5053237;28;20474;-70
2022/05/09 05:24:33;;;;;;;0.40;0.40;;;9.60;99.90;;;;;;5052471;28;20458;-68
2022/05/09 05:27:22;;;;;;;0.40;0.40;;;9.60;99.90;;;;;;5052222;28;20479;-68
2022/05/09 05:30:11;;;;;;;0.50;0.50;;;9.70;99.90;;;;;;5053442;28;20502;-70
2022/05/09 05:33:01;;;;;;;0.50;0.50;;;9.80;99.90;;;;;;5052431;28;20428;-68
2022/05/09 05:35:52;;;;;;;0.50;0.50;;;9.90;99.90;;;;;;5052902;28;20428;-68
2022/05/09 05:38:41;;;;;;;0.50;0.50;;;10.00;99.90;;;;;;5049723;28;20980;-69
2022/05/09 05:41:31;;;;;;;0.50;0.50;;;10.10;99.90;;;;;;5053910;28;20435;-69
2022/05/09 05:44:19;;;;;;;0.50;0.50;;;10.20;99.90;;;;;;5073591;28;20419;-68
2022/05/09 05:47:09;;;;;;;0.50;0.50;;;10.30;99.90;;;;;;5072240;28;20672;-68
2022/05/09 05:49:58;;;;;;;0.50;0.50;;;10.40;99.90;;;;;;5072594;28;20475;-69
2022/05/09 05:52:52;;;;;;;0.50;0.50;;;10.50;99.90;;;;;;5072806;28;20482;-69
2022/05/09 05:55:40;;;;;;;0.50;0.50;;;10.50;99.90;;;;;;5065934;28;20447;-67
2022/05/09 05:58:28;;;;;;;0.50;0.50;;;10.60;99.90;;;;;;5033770;28;20823;-69
2022/05/09 06:01:18;;;;;;;0.50;0.50;;;10.70;99.90;;;;;;5039438;28;20444;-68
2022/05/09 06:04:06;;;;;;;0.40;0.40;;;10.80;99.90;;;;;;5072309;28;20432;-67
2022/05/09 06:06:54;;;;;;;0.50;0.50;;;10.90;99.90;;;;;;5072810;28;20476;-68
2022/05/09 06:09:45;;;;;;;0.47;0.47;;;10.90;99.90;;;;;;5073036;28;20890;-67
2022/05/09 06:12:33;;;;;;;0.50;0.50;;;11.00;99.90;;;;;;5073187;28;20419;-68
2022/05/09 06:15:29;;;;;;;0.40;0.40;;;11.10;99.90;;;;;;5073706;28;20419;-70
2022/05/09 06:18:17;;;;;;;0.63;0.63;;;11.10;99.90;;;;;;5073739;28;20481;-68
2022/05/09 06:21:05;;;;;;;0.40;0.40;;;11.20;99.90;;;;;;5072977;28;20790;-66
2022/05/09 06:23:53;;;;;;;0.40;0.40;;;11.30;99.90;;;;;;5074333;28;20451;-68
2022/05/09 06:26:44;;;;;;;0.50;0.50;;;11.30;99.90;;;;;;5073168;28;20861;-68
2022/05/09 06:29:32;;;;;;;0.40;0.40;;;11.40;99.90;;;;;;5072839;28;20572;-69
2022/05/09 06:32:38;;;;;;;0.40;0.40;;;11.50;99.90;;;;;;5073453;28;20426;-68
2022/05/09 06:35:28;;;;;;;0.40;0.40;;;11.60;99.90;;;;;;5073032;28;20514;-69
2022/05/09 06:38:17;;;;;;;0.40;0.40;;;11.70;99.90;;;;;;5073001;28;20542;-70
2022/05/09 06:41:07;;;;;;;0.50;0.50;;;11.90;99.90;;;;;;5060802;28;20428;-71
2022/05/09 06:43:57;;;;;;;0.47;0.47;;;11.90;99.90;;;;;;5051237;28;20486;-68
2022/05/09 06:46:45;;;;;;;0.40;0.40;;;12.00;99.90;;;;;;5051212;28;20436;-69
2022/05/09 06:49:33;;;;;;;0.50;0.50;;;12.10;99.90;;;;;;5050351;28;20509;-67
2022/05/09 06:52:21;;;;;;;0.50;0.50;;;12.20;99.90;;;;;;5051957;28;20571;-66
2022/05/09 06:55:10;;;;;;;0.40;0.40;;;12.30;99.90;;;;;;5052301;28;20428;-68
2022/05/09 06:57:58;;;;;;;0.40;0.40;;;12.30;99.90;;;;;;5052181;28;20432;-68
2022/05/09 07:00:48;;;;;;;0.40;0.40;;;12.30;99.90;;;;;;5051856;28;20428;-68
2022/05/09 07:03:36;;;;;;;0.50;0.50;;;12.40;99.90;;;;;;5053306;28;20424;-67
2022/05/09 07:06:25;;;;;;;0.40;0.40;;;12.50;99.90;;;;;;5056369;28;20811;-67
2022/05/09 07:09:15;;;;;;;0.50;0.50;;;12.60;99.90;;;;;;5055813;28;20444;-68
2022/05/09 07:12:04;;;;;;;0.40;0.40;;;12.60;99.90;;;;;;5056767;28;20416;-68
2022/05/09 07:14:52;;;;;;;0.40;0.40;;;12.70;99.90;;;;;;5056011;28;20789;-67
2022/05/09 07:17:41;;;;;;;0.50;0.50;;;12.80;99.90;;;;;;5055427;28;20440;-68
2022/05/09 07:20:33;;;;;;;0.40;0.40;;;12.80;99.90;;;;;;5064656;28;20442;-70
2022/05/09 07:23:21;;;;;;;0.40;0.40;;;12.90;99.90;;;;;;5054498;28;20971;-68
2022/05/09 07:26:10;;;;;;;0.40;0.40;;;13.00;99.90;;;;;;5055675;28;20427;-67
2022/05/09 07:28:59;;;;;;;0.40;0.40;;;13.10;99.90;;;;;;5048190;28;20480;-68
2022/05/09 07:31:47;;;;;;;0.50;0.50;;;13.10;99.90;;;;;;5065686;28;21009;-68
2022/05/09 07:34:37;;;;;;;0.50;0.50;;;13.20;99.90;;;;;;5035843;28;20952;-67
2022/05/09 07:37:25;;;;;;;0.40;0.40;;;13.20;99.90;;;;;;5036219;28;20433;-68
2022/05/09 07:40:15;;;;;;;0.50;0.50;;;13.30;99.90;;;;;;5036409;28;20465;-68
2022/05/09 07:43:07;;;;;;;0.40;0.40;;;13.40;99.90;;;;;;5055328;28;20416;-67
2022/05/09 07:45:56;;;;;;;0.40;0.40;;;13.50;99.90;;;;;;5054652;28;21011;-68
2022/05/09 07:48:46;;;;;;;0.50;0.50;;;13.50;99.90;;;;;;5037735;28;20476;-68
2022/05/09 07:51:37;;;;;;;0.50;0.50;;;13.60;99.90;;;;;;5035358;28;20437;-68
2022/05/09 07:54:26;;;;;;;0.50;0.50;;;13.70;99.90;;;;;;5035800;28;20485;-67
2022/05/09 07:57:15;;;;;;;0.40;0.40;;;13.70;99.90;;;;;;5035095;28;21153;-67
2022/05/09 08:00:05;;;;;;;0.43;0.43;;;13.70;99.90;;;;;;5034538;28;20230;-68
2022/05/09 08:02:54;;;;;;;0.50;0.50;;;13.80;99.90;;;;;;5034504;28;20209;-67
2022/05/09 08:05:43;;;;;;;0.40;0.40;;;13.80;99.90;;;;;;5035702;28;20292;-68
2022/05/09 08:08:36;;;;;;;0.47;0.47;;;13.90;99.90;;;;;;5036110;28;20626;-68
2022/05/09 08:11:28;;;;;;;0.40;0.40;;;14.00;99.90;;;;;;5035155;28;20436;-67
2022/05/09 08:14:16;;;;;;;0.40;0.40;;;14.10;99.90;;;;;;5034435;28;20282;-67
2022/05/09 08:17:09;;;;;;;0.40;0.40;;;14.10;99.90;;;;;;5035942;28;20425;-67
2022/05/09 08:19:57;;;;;;;0.50;0.50;;;14.20;99.90;;;;;;5034466;28;20544;-69
2022/05/09 08:22:46;;;;;;;0.40;0.40;;;14.20;99.90;;;;;;5035076;28;20448;-68
2022/05/09 08:25:37;;;;;;;0.60;0.60;;;14.30;99.90;;;;;;5036099;28;20224;-69
2022/05/09 08:28:25;;;;;;;0.45;0.45;;;14.40;99.90;;;;;;5035009;28;20299;-68
2022/05/09 08:31:18;;;;;;;0.40;0.40;;;14.50;99.90;;;;;;5041415;28;20208;-68
2022/05/09 08:34:06;;;;;;;0.70;0.70;;;14.60;99.90;;;;;;5054225;28;20674;-67
2022/05/09 08:36:55;;;;;;;0.50;0.50;;;14.60;99.90;;;;;;5055183;28;20201;-68
2022/05/09 08:39:43;;;;;;;1.93;1.83;;;14.60;99.90;;;;;;5053939;28;20221;-67
2022/05/09 08:42:41;;;;;;;0.40;0.40;;;14.70;99.90;;;;;;5054922;28;20456;-68
2022/05/09 08:45:33;;;;;;;0.40;0.40;;;14.80;99.90;;;;;;5034290;28;20229;-67
2022/05/09 08:48:34;;;;;;;0.40;0.40;;;14.90;99.90;;;;;;5034963;28;20702;-67
2022/05/09 08:51:36;;;;;;;0.40;0.40;;;15.00;99.90;;;;;;5034020;28;20198;-68
2022/05/09 08:54:26;;;;;;;0.40;0.40;;;15.10;99.90;;;;;;5036865;28;20255;-67
2022/05/09 08:57:17;;;;;;;0.73;0.73;;;15.10;99.90;;;;;;5045594;28;20662;-67
2022/05/09 09:00:10;;;;;;;0.40;0.40;;;15.20;99.90;;;;;;5054205;28;20220;-68
2022/05/09 09:03:07;;;;;;;0.40;0.40;;;15.30;99.90;;;;;;5054383;28;20220;-67
2022/05/09 09:06:03;;;;;;;0.40;0.40;;;15.40;99.90;;;;;;5053993;28;20243;-68
2022/05/09 09:09:02;;;;;;;0.98;0.98;;;15.50;99.90;;;;;;5054308;28;20763;-68
2022/05/09 09:11:56;;;;;;;0.40;0.40;;;15.50;99.90;;;;;;5053946;28;20201;-66
2022/05/09 09:14:54;;;;;;;0.40;0.40;;;15.70;99.90;;;;;;5054367;28;20263;-67
2022/05/09 09:18:06;;;;;;;0.40;0.40;;;15.90;99.90;;;;;;5054332;28;20198;-66
2022/05/09 09:21:01;;;;;;;0.50;0.50;;;15.80;99.90;;;;;;5055143;28;20230;-67
2022/05/09 09:24:08;;;;;;;0.40;0.40;;;15.90;99.90;;;;;;5053657;28;20201;-66
2022/05/09 09:27:06;;;;;;;0.40;0.40;;;16.00;99.90;;;;;;5054162;28;20278;-67
2022/05/09 09:29:57;;;;;;;0.40;0.40;;;16.10;99.90;;;;;;5054077;28;20271;-68
2022/05/09 09:32:53;;;;;;;0.40;0.40;;;16.20;99.90;;;;;;5053792;28;20197;-67
2022/05/09 09:35:50;;;;;;;0.60;0.60;;;16.30;99.90;;;;;;5052200;28;20213;-67
2022/05/09 09:38:41;;;;;;;0.40;0.40;;;16.40;99.90;;;;;;5052837;28;20229;-68
2022/05/09 09:41:31;;;;;;;0.50;0.50;;;16.50;99.90;;;;;;5048842;28;20303;-67
2022/05/09 09:44:21;;;;;;;0.40;0.40;;;16.60;99.90;;;;;;5033849;28;20202;-69
2022/05/09 09:47:12;;;;;;;0.50;0.50;;;16.60;99.90;;;;;;5032495;28;20234;-67
2022/05/09 09:50:23;;;;;;;0.50;0.50;;;16.80;99.90;;;;;;5033495;28;20222;-69
2022/05/09 09:53:28;;;;;;;0.50;0.50;;;16.80;99.90;;;;;;5032491;28;20206;-68
2022/05/09 09:56:28;;;;;;;0.68;0.68;;;16.90;99.90;;;;;;5036533;28;20201;-70
2022/05/09 09:59:20;;;;;;;0.40;0.40;;;16.80;99.90;;;;;;5061173;28;20311;-67
2022/05/09 10:02:16;;;;;;;0.40;0.40;;;16.90;99.90;;;;;;5073458;28;20201;-67
2022/05/09 10:05:11;;;;;;;0.40;0.40;;;16.90;99.60;;;;;;5074656;28;20192;-68
2022/05/09 10:08:02;;;;;;;0.40;0.40;;;17.00;99.20;;;;;;5073787;28;20201;-67
2022/05/09 10:11:05;;;;;;;0.40;0.40;;;17.10;99.40;;;;;;5073413;28;20242;-66
2022/05/09 10:13:57;;;;;;;0.40;0.40;;;17.20;98.30;;;;;;5072995;28;20581;-67
2022/05/09 10:16:48;;;;;;;0.40;0.40;;;17.20;97.50;;;;;;5072752;28;20205;-69
2022/05/09 10:19:37;;;;;;;0.40;0.40;;;17.40;97.20;;;;;;5073054;28;20806;-68
2022/05/09 10:25:37;;;;;;;0.40;0.40;;;17.50;94.30;;;;;;5072833;28;20254;-69
2022/05/09 10:28:30;;;;;;;0.40;0.40;;;17.60;94.90;;;;;;5071506;28;20233;-69
2022/05/09 10:31:23;;;;;;;0.40;0.40;;;17.60;95.40;;;;;;5071427;28;20201;-68
2022/05/09 10:34:14;;;;;;;0.50;0.50;;;17.60;94.50;;;;;;5071552;28;20215;-68
2022/05/09 10:37:05;;;;;;;0.40;0.40;;;17.60;93.40;;;;;;5071610;28;20196;-68
2022/05/09 10:40:00;;;;;;;0.40;0.40;;;17.60;93.80;;;;;;5076632;28;20697;-70
2022/05/09 10:42:57;;;;;;;0.40;0.40;;;17.80;94.00;;;;;;5075783;28;20254;-69
2022/05/09 10:45:49;;;;;;;0.40;0.40;;;17.80;94.00;;;;;;5075511;28;20551;-68
2022/05/09 10:48:46;;;;;;;0.40;0.40;;;17.90;92.60;;;;;;5075155;28;20716;-68
2022/05/09 10:51:41;;;;;;;0.40;0.40;;;18.10;92.00;;;;;;5074727;28;20223;-73
2022/05/09 10:54:45;;;;;;;0.40;0.40;;;18.10;90.60;;;;;;5075486;28;20200;-68
2022/05/09 10:57:39;;;;;;;0.40;0.40;;;18.20;89.70;;;;;;5062198;28;20692;-70
2022/05/09 11:00:35;;;;;;;0.40;0.40;;;18.20;90.50;;;;;;5055169;28;20607;-68
2022/05/09 11:03:27;;;;;;;0.40;0.40;;;18.20;90.40;;;;;;5054365;28;20197;-68
2022/05/09 11:06:33;;;;;;;0.43;0.43;;;18.40;86.00;;;;;;5054442;28;20208;-69
2022/05/09 11:09:41;;;;;;;0.40;0.40;;;18.20;84.60;;;;;;5055890;28;20228;-70
2022/05/09 11:12:54;;;;;;;0.50;0.50;;;18.30;84.30;;;;;;5054186;28;20202;-72
2022/05/09 11:15:54;;;;;;;0.43;0.43;;;18.40;85.30;;;;;;5056188;28;20201;-72
2022/05/09 11:19:22;;;;;;;0.40;0.40;;;18.50;84.60;;;;;;5056188;28;20275;-69
2022/05/09 11:22:18;;;;;;;0.40;0.40;;;18.60;84.70;;;;;;5055767;28;20692;-69
2022/05/09 11:25:25;;;;;;;0.40;0.40;;;18.60;84.40;;;;;;5054770;28;20201;-69
2022/05/09 11:28:31;;;;;;;0.40;0.40;;;18.70;83.70;;;;;;5054557;28;20212;-69
2022/05/09 11:31:27;;;;;;;0.40;0.40;;;18.70;84.30;;;;;;5053773;28;20260;-70
2022/05/09 11:34:28;;;;;;;0.40;0.40;;;18.90;84.50;;;;;;5056061;28;20208;-69
2022/05/09 11:37:24;;;;;;;0.40;0.40;;;18.80;84.30;;;;;;5055720;28;20210;-70
2022/05/09 11:40:21;;;;;;;0.40;0.40;;;19.00;83.40;;;;;;5054408;28;20225;-68
2022/05/09 11:43:32;;;;;;;0.40;0.40;;;19.10;79.80;;;;;;5055010;28;20209;-68
2022/05/09 11:46:38;;;;;;;0.40;0.40;;;19.20;79.80;;;;;;5054397;28;20197;-69
2022/05/09 11:49:53;;;;;;;0.40;0.40;;;19.30;78.30;;;;;;5051808;28;20216;-69
2022/05/09 11:52:43;;;;;;;0.40;0.40;;;19.30;75.90;;;;;;5053200;28;20454;-69
2022/05/09 11:55:32;;;;;;;0.40;0.40;;;19.40;75.00;;;;;;5054202;28;20830;-69
2022/05/09 11:58:21;;;;;;;0.40;0.40;;;19.40;73.90;;;;;;5054347;28;20268;-68
2022/05/09 12:01:11;;;;;;;0.40;0.40;;;19.40;74.20;;;;;;5052720;28;20263;-71
2022/05/09 12:03:59;;;;;;;0.40;0.40;;;19.50;74.00;;;;;;5053013;28;20197;-69
2022/05/09 12:06:48;;;;;;;0.40;0.40;;;19.50;74.90;;;;;;5053537;28;20200;-70
2022/05/09 12:10:00;;;;;;;0.40;0.40;;;19.60;74.50;;;;;;5053404;28;20356;-68
2022/05/09 12:12:54;;;;;;;0.40;0.40;;;19.80;71.20;;;;;;5055105;28;20647;-70
2022/05/09 12:15:49;;;;;;;0.40;0.40;;;19.80;72.60;;;;;;5054899;28;20296;-71
2022/05/09 12:18:54;;;;;;;0.40;0.40;;;19.80;71.60;;;;;;5052535;28;20214;-68
2022/05/09 12:21:42;;;;;;;0.40;0.40;;;19.90;71.10;;;;;;5052170;28;20232;-70
2022/05/09 12:24:36;;;;;;;0.40;0.40;;;20.00;71.70;;;;;;5053358;28;20255;-69
2022/05/09 12:27:43;;;;;;;0.40;0.40;;;20.00;70.70;;;;;;5053609;28;20201;-71
2022/05/09 12:30:43;;;;;;;0.40;0.40;;;20.20;71.50;;;;;;5054786;28;20224;-70
2022/05/09 12:33:36;;;;;;;0.40;0.40;;;20.30;71.90;;;;;;5050922;28;20267;-68
2022/05/09 12:36:29;;;;;;;0.40;0.40;;;20.40;68.60;;;;;;5052314;28;20197;-71
2022/05/09 12:39:18;;;;;;;0.40;0.40;;;20.80;69.80;;;;;;5052768;28;20233;-68
2022/05/09 12:42:13;;;;;;;0.40;0.40;;;21.50;69.60;;;;;;5052265;28;20193;-67
2022/05/09 12:45:05;;;;;;;0.40;0.40;;;22.80;66.50;;;;;;5053917;28;20689;-68
2022/05/09 12:47:53;;;;;;;0.73;0.73;;;24.60;65.40;;;;;;5054411;28;20205;-67
2022/05/09 12:50:44;;;;;;;0.88;0.40;;;26.50;60.90;;;;;;5052350;28;20693;-67
2022/05/09 12:53:33;;;;;;;0.40;0.40;;;28.10;56.00;;;;;;5053235;28;20209;-67
2022/05/09 12:56:26;;;;;;;1.02;1.02;;;30.10;53.20;;;;;;5052308;28;20201;-67
2022/05/09 12:59:18;;;;;;;0.47;0.47;;;32.20;50.00;;;;;;5053275;28;20253;-68
2022/05/09 13:02:06;;;;;;;0.40;0.40;;;33.80;46.00;;;;;;5052120;28;20219;-69
2022/05/09 13:05:16;;;;;;;0.40;0.40;;;35.30;42.50;;;;;;5052699;28;20203;-68
2022/05/09 13:08:07;;;;;;;0.40;0.40;;;35.90;40.70;;;;;;5052979;28;20204;-68
2022/05/09 13:10:57;;;;;;;3.40;3.10;;;36.80;38.70;;;;;;5053144;28;20217;-68
2022/05/09 13:13:58;;;;;;;0.40;0.40;;;37.60;38.20;;;;;;5053545;28;20224;-68
2022/05/09 13:16:57;;;;;;;0.40;0.40;;;38.30;36.00;;;;;;5052504;28;20282;-68
2022/05/09 13:19:47;;;;;;;0.40;0.40;;;38.90;34.90;;;;;;5051691;28;20221;-68
2022/05/09 13:22:46;;;;;;;0.50;0.50;;;39.50;33.80;;;;;;5088915;28;20532;-68
2022/05/09 13:25:38;;;;;;;0.40;0.40;;;40.10;33.70;;;;;;5108610;28;20249;-68
2022/05/09 13:28:30;;;;;;;0.40;0.40;;;40.60;32.00;;;;;;5107949;28;20223;-68
2022/05/09 13:31:27;;;;;;;0.40;0.40;;;41.20;32.20;;;;;;5108143;28;20208;-67
2022/05/09 13:34:19;;;;;;;0.40;0.40;;;41.40;30.50;;;;;;5109752;28;20278;-68
2022/05/09 13:37:12;;;;;;;2.58;1.67;;;41.30;30.00;;;;;;5107959;28;20672;-68
2022/05/09 13:40:08;;;;;;;0.40;0.40;;;41.80;29.70;;;;;;5107228;28;20215;-68
2022/05/09 13:42:57;;;;;;;0.50;0.50;;;42.10;28.60;;;;;;5107848;28;20191;-69
2022/05/09 13:45:45;;;;;;;0.40;0.40;;;42.60;28.70;;;;;;5107688;28;20687;-69
2022/05/09 13:48:33;;;;;;;0.40;0.40;;;42.40;28.60;;;;;;5108256;28;20309;-69
2022/05/09 13:51:27;;;;;;;0.50;0.50;;;42.10;28.90;;;;;;5108144;28;20274;-69
2022/05/09 13:54:23;;;;;;;1.02;1.02;;;42.10;28.70;;;;;;5108516;28;20196;-69
2022/05/09 13:57:17;;;;;;;0.40;0.40;;;41.20;28.80;;;;;;5108213;28;20617;-69
2022/05/09 14:00:09;;;;;;;0.50;0.50;;;40.20;28.60;;;;;;5108670;28;20269;-69
2022/05/09 14:03:01;;;;;;;0.40;0.40;;;38.70;28.70;;;;;;5108247;28;20204;-68
2022/05/09 14:05:52;;;;;;;0.40;0.40;;;36.80;30.00;;;;;;5108168;28;20572;-68
2022/05/09 14:08:41;;;;;;;0.55;0.55;;;35.50;31.00;;;;;;5106782;28;20220;-69
2022/05/09 14:11:31;;;;;;;0.40;0.40;;;34.20;31.30;;;;;;5107202;28;20267;-69
2022/05/09 14:14:36;;;;;;;0.50;0.50;;;33.80;32.40;;;;;;5108480;28;20204;-69
2022/05/09 14:17:30;;;;;;;0.40;0.40;;;35.10;32.50;;;;;;5107908;28;20289;-70
2022/05/09 14:20:26;;;;;;;0.40;0.40;;;37.20;31.30;;;;;;5107870;28;20797;-70
2022/05/09 14:23:18;;;;;;;0.40;0.40;;;38.70;30.30;;;;;;5107414;28;20206;-69
2022/05/09 14:32:42;;;;;;;0.50;0.50;;;42.60;28.10;;;;;;5101004;28;20588;-70
2022/05/09 14:35:41;;;;;;;0.45;0.45;;;43.30;27.50;;;;;;5093830;28;20196;-70
2022/05/09 14:38:32;;;;;;;0.50;0.50;;;43.70;27.40;;;;;;5092880;28;20299;-69
2022/05/09 14:41:40;;;;;;;0.50;0.50;;;44.10;27.00;;;;;;5094065;28;20581;-70
2022/05/09 14:44:31;;;;;;;0.43;0.43;;;44.50;26.60;;;;;;5092656;28;20270;-70
2022/05/09 14:47:25;;;;;;;0.50;0.50;;;44.40;26.80;;;;;;5093820;28;20231;-70
2022/05/09 14:50:20;;;;;;;0.40;0.40;;;44.50;26.20;;;;;;5093514;28;20302;-70
2022/05/09 14:53:12;;;;;;;0.50;0.50;;;44.40;26.00;;;;;;5092760;28;20616;-70
2022/05/09 14:59:18;;;;;;;0.50;0.50;;;44.20;25.80;;;;;;5093568;28;20306;-70
2022/05/09 15:02:10;;;;;;;0.40;0.40;;;44.00;26.30;;;;;;5093094;28;20219;-70
2022/05/09 15:05:01;;;;;;;0.82;0.80;;;44.20;25.90;;;;;;5093454;28;20680;-70
2022/05/09 15:07:54;;;;;;;1.55;1.45;;;44.80;25.70;;;;;;5093499;28;20192;-70
2022/05/09 15:10:43;;;;;;;0.50;0.50;;;45.30;25.20;;;;;;5093272;28;20200;-70
2022/05/09 15:13:34;;;;;;;0.50;0.50;;;45.40;24.90;;;;;;5093492;28;20617;-70
2022/05/09 15:16:26;;;;;;;0.50;0.50;;;45.20;24.50;;;;;;5093645;28;20274;-70
2022/05/09 15:19:16;;;;;;;0.57;0.57;;;44.70;25.00;;;;;;5092706;28;20724;-69
2022/05/09 15:22:05;;;;;;;0.50;0.50;;;44.00;24.70;;;;;;5093268;28;20698;-70